KFXY/FXY METAR and TAF weather

Enter ICAO airport designator
Station Type Date Time Source
KFXY METAR 2019/08/20 09:35 UTC NOAA

KFXY 200935Z AUTO 35003KT 10SM SCT055 SCT075 SCT100 21/20 A2992 RMK AO2


Station Type Date Time Source
KFXY Decoded METAR 2019/08/20 09:35 UTC NOAA

Station name not available
Aug 20, 2019 - 05:35 AM EDT / 2019.08.20 0935 UTC
Wind: from the N (350 degrees) at 3 MPH (3 KT):0
Visibility: 10 mile(s):0
Sky conditions: partly cloudy
Temperature: 69 F (21 C)
Dew Point: 68 F (20 C)
Relative Humidity: 94%
Pressure (altimeter): 29.92 in. Hg (1013 hPa)
ob: KFXY 200935Z AUTO 35003KT 10SM SCT055 SCT075 SCT100 21/20 A2992 RMK AO2
cycle: 9

Station Type Date Time Source
KFXY TAF UTC NOAA

Error!

Example: see airport list